createdAt,value
2019-03-03T00:00:28.722Z,10.10
2019-03-03T00:02:57.149Z,10.10
2019-03-03T00:05:26.166Z,10.00
2019-03-03T00:07:54.655Z,10.00
2019-03-03T00:10:23.066Z,10.00
2019-03-03T00:12:52.509Z,10.10
2019-03-03T00:15:21.050Z,10.10
2019-03-03T00:17:49.503Z,10.10
2019-03-03T00:20:17.912Z,10.20
2019-03-03T00:22:46.394Z,10.20
2019-03-03T00:25:15.434Z,10.20
2019-03-03T00:27:44.125Z,10.20
2019-03-03T00:30:17.809Z,10.20
2019-03-03T00:32:46.232Z,10.20
2019-03-03T00:35:15.097Z,10.20
2019-03-03T00:38:01.281Z,10.20
2019-03-03T00:40:40.432Z,10.20
2019-03-03T00:43:10.508Z,10.20
2019-03-03T00:45:49.441Z,10.20
2019-03-03T00:48:19.501Z,10.10
2019-03-03T00:51:05.888Z,10.10
2019-03-03T00:53:47.970Z,10.10
2019-03-03T00:56:34.088Z,10.10
2019-03-03T00:59:10.147Z,10.10
2019-03-03T01:01:58.073Z,10.00
2019-03-03T01:04:44.296Z,10.00
2019-03-03T01:07:20.183Z,10.00
2019-03-03T01:09:50.266Z,10.10
2019-03-03T01:12:32.084Z,10.10
2019-03-03T01:15:08.079Z,10.10
2019-03-03T01:17:38.150Z,10.10
2019-03-03T01:20:13.589Z,10.10
2019-03-03T01:22:59.647Z,10.10
2019-03-03T01:25:28.084Z,10.10
2019-03-03T01:27:56.833Z,10.10
2019-03-03T01:30:25.545Z,10.10
2019-03-03T01:32:53.994Z,10.10
2019-03-03T01:35:22.484Z,10.10
2019-03-03T01:37:50.901Z,10.10
2019-03-03T01:40:19.652Z,10.10
2019-03-03T01:42:48.058Z,10.00
2019-03-03T01:45:16.943Z,10.00
2019-03-03T01:47:45.388Z,10.00
2019-03-03T01:50:14.281Z,10.00
2019-03-03T01:52:42.846Z,9.90
2019-03-03T01:55:12.590Z,9.90
2019-03-03T01:57:40.979Z,10.00
2019-03-03T02:00:18.302Z,10.00
2019-03-03T02:02:46.870Z,9.90
2019-03-03T02:05:15.671Z,10.00
2019-03-03T02:07:44.206Z,10.00
2019-03-03T02:10:14.533Z,10.00
2019-03-03T02:12:43.120Z,10.10
2019-03-03T02:15:11.952Z,10.10
2019-03-03T02:17:40.769Z,10.10
2019-03-03T02:20:11.129Z,10.00
2019-03-03T02:22:40.746Z,10.10
2019-03-03T02:25:13.683Z,10.10
2019-03-03T02:27:42.407Z,10.10
2019-03-03T02:30:14.117Z,10.00
2019-03-03T02:32:42.736Z,10.10
2019-03-03T02:35:11.906Z,10.10
2019-03-03T02:37:40.675Z,10.10
2019-03-03T02:40:15.242Z,10.20
2019-03-03T02:42:43.741Z,10.20
2019-03-03T02:45:16.743Z,10.20
2019-03-03T02:47:45.320Z,10.20
2019-03-03T02:50:15.050Z,10.20
2019-03-03T02:52:43.595Z,10.30
2019-03-03T02:55:13.653Z,10.30
2019-03-03T02:57:42.316Z,10.40
2019-03-03T03:00:16.991Z,10.40
2019-03-03T03:02:47.127Z,10.40
2019-03-03T03:05:25.234Z,10.40
2019-03-03T03:07:55.271Z,10.40
2019-03-03T03:10:31.334Z,10.50
2019-03-03T03:13:04.114Z,10.40
2019-03-03T03:15:43.202Z,10.40
2019-03-03T03:18:19.202Z,10.40
2019-03-03T03:20:49.391Z,10.40
2019-03-03T03:23:22.652Z,10.40
2019-03-03T03:25:53.047Z,10.40
2019-03-03T03:28:29.435Z,10.40
2019-03-03T03:31:15.807Z,10.50
2019-03-03T03:33:56.401Z,10.50
2019-03-03T03:36:29.205Z,10.50
2019-03-03T03:39:04.966Z,10.60
2019-03-03T03:41:35.268Z,10.60
2019-03-03T03:44:08.302Z,10.60
2019-03-03T03:46:44.343Z,10.60
2019-03-03T03:49:29.592Z,10.60
2019-03-03T03:51:59.956Z,10.60
2019-03-03T03:54:30.036Z,10.50
2019-03-03T03:57:03.400Z,10.50
2019-03-03T03:59:34.187Z,10.50
2019-03-03T04:02:19.116Z,10.50
2019-03-03T04:05:05.010Z,10.50
2019-03-03T04:07:35.161Z,10.40
2019-03-03T04:10:06.007Z,10.40
2019-03-03T04:12:45.189Z,10.40
2019-03-03T04:15:15.588Z,10.40
2019-03-03T04:17:51.891Z,10.40
2019-03-03T04:20:28.188Z,10.40
2019-03-03T04:23:11.863Z,10.40
2019-03-03T04:25:51.177Z,10.40
2019-03-03T04:28:33.789Z,10.40
2019-03-03T04:31:06.882Z,10.30
2019-03-03T04:33:37.172Z,10.40
2019-03-03T04:36:07.506Z,10.40
2019-03-03T04:38:46.090Z,10.40
2019-03-03T04:41:21.906Z,10.40
2019-03-03T04:43:51.960Z,10.40
2019-03-03T04:46:22.698Z,10.40
2019-03-03T04:48:52.808Z,10.30
2019-03-03T04:51:24.112Z,10.30
2019-03-03T04:54:06.839Z,10.30
2019-03-03T04:56:54.362Z,10.40
2019-03-03T04:59:36.494Z,10.50
2019-03-03T05:02:06.557Z,10.40
2019-03-03T05:04:36.609Z,10.50
2019-03-03T05:07:12.468Z,10.50
2019-03-03T05:09:45.455Z,10.50
2019-03-03T05:12:20.152Z,10.60
2019-03-03T05:14:49.742Z,10.60
2019-03-03T05:17:23.142Z,10.50
2019-03-03T05:19:55.950Z,10.50
2019-03-03T05:22:24.987Z,10.50
2019-03-03T05:24:53.553Z,10.50
2019-03-03T05:27:22.266Z,10.50
2019-03-03T05:29:51.010Z,10.50
2019-03-03T05:32:19.418Z,10.50
2019-03-03T05:34:48.123Z,10.50
2019-03-03T05:37:16.543Z,10.40
2019-03-03T05:39:44.950Z,10.40
2019-03-03T05:42:13.421Z,10.30
2019-03-03T05:44:42.078Z,10.30
2019-03-03T05:47:10.887Z,10.30
2019-03-03T05:49:39.587Z,10.30
2019-03-03T05:52:08.262Z,10.40
2019-03-03T05:54:36.684Z,10.40
2019-03-03T05:57:05.451Z,10.40
2019-03-03T05:59:34.113Z,10.30
2019-03-03T06:02:02.533Z,10.40
2019-03-03T06:04:31.309Z,10.40
2019-03-03T06:06:59.974Z,10.40
2019-03-03T06:09:28.616Z,10.30
2019-03-03T06:11:57.094Z,10.40
2019-03-03T06:14:25.993Z,10.40
2019-03-03T06:16:54.393Z,10.40
2019-03-03T06:19:23.092Z,10.50
2019-03-03T06:21:51.782Z,10.50
2019-03-03T06:24:20.233Z,10.60
2019-03-03T06:26:48.717Z,10.60
2019-03-03T06:29:17.135Z,10.60
2019-03-03T06:31:45.564Z,10.60
2019-03-03T06:34:15.090Z,10.60
2019-03-03T06:36:43.764Z,10.60
2019-03-03T06:39:12.197Z,10.50
2019-03-03T06:41:40.909Z,10.40
2019-03-03T06:44:09.311Z,10.40
2019-03-03T06:46:37.695Z,10.40
2019-03-03T06:49:06.355Z,10.40
2019-03-03T06:51:34.752Z,10.40
2019-03-03T06:54:03.154Z,10.40
2019-03-03T06:56:31.813Z,10.40
2019-03-03T06:59:00.206Z,10.30
2019-03-03T07:01:28.842Z,10.30
2019-03-03T07:03:57.266Z,10.30
2019-03-03T07:06:26.222Z,10.40
2019-03-03T07:08:54.853Z,10.40
2019-03-03T07:11:23.672Z,10.40
2019-03-03T07:13:52.324Z,10.40
2019-03-03T07:16:20.942Z,10.40
2019-03-03T07:18:50.435Z,10.40
2019-03-03T07:21:18.813Z,10.40
2019-03-03T07:23:47.440Z,10.40
2019-03-03T07:26:15.844Z,10.40
2019-03-03T07:28:44.234Z,10.30
2019-03-03T07:31:12.873Z,10.30
2019-03-03T07:33:41.606Z,10.30
2019-03-03T07:36:10.249Z,10.40
2019-03-03T07:38:38.644Z,10.40
2019-03-03T07:41:08.225Z,10.30
2019-03-03T07:43:36.878Z,10.30
2019-03-03T07:46:05.317Z,10.30
2019-03-03T07:48:33.733Z,10.40
2019-03-03T07:51:02.374Z,10.40
2019-03-03T07:53:31.008Z,10.40
2019-03-03T07:55:59.687Z,10.40
2019-03-03T07:58:28.106Z,10.40
2019-03-03T08:00:56.746Z,10.40
2019-03-03T08:03:25.191Z,10.50
2019-03-03T08:05:53.860Z,10.50
2019-03-03T08:08:22.748Z,10.40
2019-03-03T08:10:51.179Z,10.50
2019-03-03T08:13:19.570Z,10.50
2019-03-03T08:15:48.068Z,10.50
2019-03-03T08:18:16.748Z,10.50
2019-03-03T08:20:45.170Z,10.60
2019-03-03T08:23:13.595Z,10.60
2019-03-03T08:25:42.063Z,10.60
2019-03-03T08:28:10.483Z,10.60
2019-03-03T08:30:38.917Z,10.70
2019-03-03T08:33:07.436Z,10.70
2019-03-03T08:35:36.224Z,10.80
2019-03-03T08:38:04.622Z,10.80
2019-03-03T08:40:33.106Z,10.80
2019-03-03T08:43:19.488Z,10.70
2019-03-03T08:45:49.793Z,10.70
2019-03-03T08:48:22.525Z,10.80
2019-03-03T08:51:07.841Z,10.70
2019-03-03T08:53:49.999Z,10.80
2019-03-03T08:56:25.864Z,10.80
2019-03-03T08:58:56.134Z,10.70
2019-03-03T09:01:26.192Z,10.80
2019-03-03T09:04:05.278Z,10.80
2019-03-03T09:06:38.426Z,10.80
2019-03-03T09:09:25.408Z,10.90
2019-03-03T09:11:58.650Z,10.90
2019-03-03T09:14:34.952Z,11.00
2019-03-03T09:17:10.854Z,11.00
2019-03-03T09:19:56.917Z,11.00
2019-03-03T09:22:35.433Z,11.00
2019-03-03T09:25:15.528Z,11.00
2019-03-03T09:28:01.649Z,11.00
2019-03-03T09:30:49.615Z,11.10
2019-03-03T09:33:39.444Z,11.00
2019-03-03T09:36:09.557Z,11.10
2019-03-03T09:38:42.283Z,11.10
2019-03-03T09:41:12.353Z,11.20
2019-03-03T09:43:42.669Z,11.20
2019-03-03T09:46:21.443Z,11.10
2019-03-03T09:48:51.794Z,11.20
2019-03-03T09:51:27.812Z,11.20
2019-03-03T09:53:58.078Z,11.30
2019-03-03T09:56:28.370Z,11.40
2019-03-03T09:59:04.581Z,11.40
2019-03-03T10:01:34.858Z,11.50
2019-03-03T10:04:21.472Z,11.60
2019-03-03T10:07:00.598Z,11.60
2019-03-03T10:09:46.736Z,11.70
2019-03-03T10:12:17.029Z,11.70
2019-03-03T10:15:03.585Z,11.70
2019-03-03T10:17:33.720Z,11.80
2019-03-03T10:20:04.044Z,11.80
2019-03-03T10:22:43.138Z,11.80
2019-03-03T10:25:13.662Z,11.80
2019-03-03T10:28:00.427Z,11.90
2019-03-03T10:30:33.627Z,11.80
2019-03-03T10:33:12.678Z,11.80
2019-03-03T10:35:46.424Z,11.80
2019-03-03T10:38:22.265Z,11.90
2019-03-03T10:41:04.569Z,11.90
2019-03-03T10:43:34.741Z,11.90
2019-03-03T10:46:21.285Z,11.80
2019-03-03T10:48:51.613Z,11.80
2019-03-03T10:51:21.917Z,11.90
2019-03-03T10:53:55.140Z,11.80
2019-03-03T10:56:34.561Z,11.80
2019-03-03T10:59:13.698Z,11.80
2019-03-03T11:01:52.764Z,11.70
2019-03-03T11:04:22.866Z,11.70
2019-03-03T11:06:55.356Z,11.80
2019-03-03T11:09:31.361Z,11.80
2019-03-03T11:12:10.032Z,11.80
2019-03-03T11:14:43.350Z,11.80
2019-03-03T11:17:15.904Z,11.70
2019-03-03T11:19:55.045Z,11.80
2019-03-03T11:22:27.623Z,11.80
2019-03-03T11:25:06.662Z,11.80
2019-03-03T11:27:36.949Z,11.80
2019-03-03T11:30:10.522Z,11.80
2019-03-03T11:32:41.194Z,11.80
2019-03-03T11:35:11.537Z,11.90
2019-03-03T11:37:44.376Z,11.90
2019-03-03T11:40:29.533Z,12.00
2019-03-03T11:43:05.706Z,12.00
2019-03-03T11:45:38.633Z,12.10
2019-03-03T11:48:08.974Z,12.10
2019-03-03T11:50:39.575Z,12.10
2019-03-03T11:53:12.632Z,12.10
2019-03-03T11:55:59.122Z,12.10
2019-03-03T11:58:33.595Z,12.10
2019-03-03T12:01:12.849Z,12.10
2019-03-03T12:03:55.272Z,12.10
2019-03-03T12:06:30.959Z,12.20
2019-03-03T12:09:17.472Z,12.20
2019-03-03T12:11:50.349Z,12.30
2019-03-03T12:14:20.644Z,12.30
2019-03-03T12:16:56.531Z,12.40
2019-03-03T12:19:35.763Z,12.40
2019-03-03T12:22:08.081Z,12.40
2019-03-03T12:24:47.086Z,12.40
2019-03-03T12:27:23.253Z,12.40
2019-03-03T12:29:56.401Z,12.40
2019-03-03T12:32:29.149Z,12.50
2019-03-03T12:35:16.006Z,12.50
2019-03-03T12:37:54.818Z,12.50
2019-03-03T12:40:28.232Z,12.50
2019-03-03T12:42:58.531Z,12.50
2019-03-03T12:45:40.806Z,12.50
2019-03-03T12:48:10.870Z,12.40
2019-03-03T12:50:53.086Z,12.40
2019-03-03T12:53:41.263Z,12.30
2019-03-03T12:56:17.455Z,12.40
2019-03-03T12:58:47.524Z,12.40
2019-03-03T13:01:17.906Z,12.40
2019-03-03T13:03:47.942Z,12.40
2019-03-03T13:06:27.259Z,12.50
2019-03-03T13:08:59.840Z,12.50
2019-03-03T13:11:41.425Z,12.50
2019-03-03T13:14:27.916Z,12.60
2019-03-03T13:17:04.083Z,12.70
2019-03-03T13:19:34.133Z,12.70
2019-03-03T13:22:04.177Z,12.70
2019-03-03T13:24:40.693Z,12.80
2019-03-03T13:27:22.818Z,12.80
2019-03-03T13:30:05.040Z,12.70
2019-03-03T13:32:52.871Z,12.70
2019-03-03T13:35:39.246Z,12.70
2019-03-03T13:38:26.512Z,12.70
2019-03-03T13:41:05.358Z,12.60
2019-03-03T13:43:34.422Z,12.60
2019-03-03T13:46:02.982Z,12.60
2019-03-03T13:48:31.684Z,12.50
2019-03-03T13:51:00.163Z,12.50
2019-03-03T13:53:28.791Z,12.50
2019-03-03T13:55:57.275Z,12.60
2019-03-03T13:58:25.738Z,12.60
2019-03-03T14:00:54.463Z,12.50
2019-03-03T14:03:23.147Z,12.50
2019-03-03T14:05:51.613Z,12.50
2019-03-03T14:08:20.090Z,12.50
2019-03-03T14:10:48.780Z,12.40
2019-03-03T14:13:17.161Z,12.50
2019-03-03T14:15:45.804Z,12.50
2019-03-03T14:18:14.587Z,12.60
2019-03-03T14:20:43.029Z,12.60
2019-03-03T14:23:11.677Z,12.70
2019-03-03T14:25:40.105Z,12.70
2019-03-03T14:28:08.885Z,12.80
2019-03-03T14:30:37.659Z,12.80
2019-03-03T14:33:06.114Z,12.80
2019-03-03T14:35:34.529Z,12.80
2019-03-03T14:38:03.053Z,12.80
2019-03-03T14:40:31.489Z,12.80
2019-03-03T14:43:00.468Z,12.80
2019-03-03T14:45:30.222Z,12.80
2019-03-03T14:47:58.831Z,12.80
2019-03-03T14:50:27.246Z,12.70
2019-03-03T14:52:57.137Z,12.60
2019-03-03T14:55:25.832Z,12.60
2019-03-03T14:57:54.441Z,12.50
2019-03-03T15:00:26.859Z,12.40
2019-03-03T15:02:56.121Z,12.40
2019-03-03T15:05:24.621Z,12.40
2019-03-03T15:07:53.361Z,12.30
2019-03-03T15:10:22.512Z,12.30
2019-03-03T15:12:51.420Z,12.30
2019-03-03T15:15:34.905Z,12.20
2019-03-03T15:18:03.481Z,12.20
2019-03-03T15:20:32.232Z,12.20
2019-03-03T15:23:01.066Z,12.20
2019-03-03T15:25:29.621Z,12.20
2019-03-03T15:27:58.284Z,12.20
2019-03-03T15:30:27.075Z,12.20
2019-03-03T15:32:55.896Z,12.30
2019-03-03T15:35:24.595Z,12.30
2019-03-03T15:37:53.319Z,12.30
2019-03-03T15:40:23.691Z,12.30
2019-03-03T15:42:52.424Z,12.40
2019-03-03T15:45:22.633Z,12.40
2019-03-03T15:47:51.288Z,12.40
2019-03-03T15:50:21.665Z,12.40
2019-03-03T15:52:50.249Z,12.40
2019-03-03T15:55:22.010Z,12.40
2019-03-03T15:57:50.667Z,12.40
2019-03-03T16:00:24.624Z,12.30
2019-03-03T16:02:53.178Z,12.40
2019-03-03T16:05:22.416Z,12.30
2019-03-03T16:07:51.131Z,12.30
2019-03-03T16:10:23.129Z,12.30
2019-03-03T16:12:51.697Z,12.30
2019-03-03T16:15:20.363Z,12.40
2019-03-03T16:17:49.137Z,12.40
2019-03-03T16:20:21.204Z,12.40
2019-03-03T16:22:49.772Z,12.40
2019-03-03T16:25:23.842Z,12.30
2019-03-03T16:27:52.688Z,12.30
2019-03-03T16:30:22.864Z,12.40
2019-03-03T16:32:51.980Z,12.40
2019-03-03T16:35:20.728Z,12.40
2019-03-03T16:37:49.434Z,12.40
2019-03-03T16:40:22.977Z,12.50
2019-03-03T16:42:51.540Z,12.40
2019-03-03T16:45:20.611Z,12.40
2019-03-03T16:47:49.034Z,12.30
2019-03-03T16:50:22.170Z,12.40
2019-03-03T16:52:50.932Z,12.30
2019-03-03T16:55:20.506Z,12.30
2019-03-03T16:57:48.995Z,12.30
2019-03-03T17:00:20.287Z,12.30
2019-03-03T17:02:48.844Z,12.30
2019-03-03T17:05:19.100Z,12.30
2019-03-03T17:07:47.620Z,12.30
2019-03-03T17:10:16.185Z,12.30
2019-03-03T17:12:44.621Z,12.30
2019-03-03T17:15:15.673Z,12.30
2019-03-03T17:17:44.197Z,12.30
2019-03-03T17:20:13.012Z,12.30
2019-03-03T17:22:41.824Z,12.30
2019-03-03T17:25:19.331Z,12.30
2019-03-03T17:27:48.435Z,12.30
2019-03-03T17:30:22.159Z,12.30
2019-03-03T17:32:50.555Z,12.30
2019-03-03T17:35:19.405Z,12.30
2019-03-03T17:37:48.387Z,12.30
2019-03-03T17:40:19.214Z,12.30
2019-03-03T17:42:47.827Z,12.30
2019-03-03T17:45:20.943Z,12.30
2019-03-03T17:47:49.869Z,12.30
2019-03-03T17:50:31.394Z,12.30
2019-03-03T17:53:00.955Z,12.30
2019-03-03T17:55:29.397Z,12.40
2019-03-03T17:57:57.835Z,12.40
2019-03-03T18:00:30.011Z,12.50
2019-03-03T18:02:58.764Z,12.50
2019-03-03T18:05:27.269Z,12.50
2019-03-03T18:07:55.836Z,12.50
2019-03-03T18:10:24.422Z,12.50
2019-03-03T18:12:53.161Z,12.50
2019-03-03T18:15:21.589Z,12.40
2019-03-03T18:17:50.712Z,12.40
2019-03-03T18:20:20.465Z,12.40
2019-03-03T18:22:49.059Z,12.40
2019-03-03T18:25:18.755Z,12.40
2019-03-03T18:27:47.344Z,12.40
2019-03-03T18:30:18.387Z,12.40
2019-03-03T18:32:46.802Z,12.40
2019-03-03T18:35:15.446Z,12.40
2019-03-03T18:37:43.854Z,12.40
2019-03-03T18:40:20.204Z,12.40
2019-03-03T18:42:49.571Z,12.30
2019-03-03T18:45:19.861Z,12.30
2019-03-03T18:47:48.867Z,12.30
2019-03-03T18:50:19.400Z,12.30
2019-03-03T18:52:47.801Z,12.40
2019-03-03T18:55:17.170Z,12.30
2019-03-03T18:57:46.143Z,12.30
2019-03-03T19:00:17.799Z,12.30
2019-03-03T19:02:46.295Z,12.30
2019-03-03T19:05:15.045Z,12.30
2019-03-03T19:07:43.866Z,12.30
2019-03-03T19:10:18.037Z,12.30
2019-03-03T19:12:48.219Z,12.40
2019-03-03T19:15:20.458Z,12.40
2019-03-03T19:17:50.504Z,12.40
2019-03-03T19:20:21.792Z,12.40
2019-03-03T19:22:51.103Z,12.40
2019-03-03T19:25:19.993Z,12.40
2019-03-03T19:27:48.886Z,12.40
2019-03-03T19:30:28.543Z,12.40
2019-03-03T19:33:00.147Z,12.30
2019-03-03T19:35:28.674Z,12.30
2019-03-03T19:37:57.507Z,12.30
2019-03-03T19:40:26.333Z,12.30
2019-03-03T19:42:54.864Z,12.30
2019-03-03T19:45:40.709Z,12.30
2019-03-03T19:48:09.896Z,12.30
2019-03-03T19:50:38.457Z,12.30
2019-03-03T19:53:07.252Z,12.20
2019-03-03T19:55:35.819Z,12.20
2019-03-03T19:58:04.681Z,12.20
2019-03-03T20:00:38.539Z,12.20
2019-03-03T20:03:06.076Z,12.20
2019-03-03T20:05:34.751Z,12.20
2019-03-03T20:08:03.731Z,12.20
2019-03-03T20:10:32.298Z,12.20
2019-03-03T20:13:01.123Z,12.10
2019-03-03T20:15:30.284Z,12.10
2019-03-03T20:17:58.965Z,12.10
2019-03-03T20:20:27.660Z,12.10
2019-03-03T20:22:56.182Z,12.10
2019-03-03T20:25:25.726Z,12.10
2019-03-03T20:27:54.539Z,12.10
2019-03-03T20:30:25.151Z,12.10
2019-03-03T20:32:53.779Z,12.10
2019-03-03T20:35:22.327Z,12.20
2019-03-03T20:37:51.327Z,12.20
2019-03-03T20:40:26.983Z,12.20
2019-03-03T20:42:55.975Z,12.20
2019-03-03T20:45:28.547Z,12.20
2019-03-03T20:47:57.033Z,12.20
2019-03-03T20:50:25.765Z,12.20
2019-03-03T20:52:54.509Z,12.30
2019-03-03T20:55:26.918Z,12.30
2019-03-03T20:57:55.472Z,12.20
2019-03-03T21:00:26.234Z,12.20
2019-03-03T21:02:55.142Z,12.20
2019-03-03T21:05:23.706Z,12.20
2019-03-03T21:07:52.282Z,12.30
2019-03-03T21:10:25.675Z,12.30
2019-03-03T21:12:54.151Z,12.30
2019-03-03T21:15:22.665Z,12.20
2019-03-03T21:17:51.163Z,12.20
2019-03-03T21:20:21.263Z,12.20
2019-03-03T21:22:50.001Z,12.30
2019-03-03T21:25:19.211Z,12.30
2019-03-03T21:27:47.940Z,12.30
2019-03-03T21:30:22.144Z,12.20
2019-03-03T21:32:50.631Z,12.20
2019-03-03T21:35:19.147Z,12.20
2019-03-03T21:37:47.841Z,12.30
2019-03-03T21:40:23.779Z,12.30
2019-03-03T21:42:52.787Z,12.30
2019-03-03T21:45:22.878Z,12.30
2019-03-03T21:47:51.819Z,12.30
2019-03-03T21:50:22.681Z,12.30
2019-03-03T21:52:51.088Z,12.30
2019-03-03T21:55:19.694Z,12.30
2019-03-03T21:57:48.347Z,12.20
2019-03-03T22:00:34.438Z,12.20
2019-03-03T22:03:03.212Z,12.20
2019-03-03T22:05:31.638Z,12.20
2019-03-03T22:08:01.146Z,12.20
2019-03-03T22:10:30.011Z,12.20
2019-03-03T22:13:04.388Z,12.10
2019-03-03T22:15:32.927Z,12.20
2019-03-03T22:18:01.488Z,12.30
2019-03-03T22:20:30.134Z,12.30
2019-03-03T22:22:58.537Z,12.30
2019-03-03T22:25:26.984Z,12.30
2019-03-03T22:27:55.494Z,12.30
2019-03-03T22:30:23.970Z,12.30
2019-03-03T22:32:52.464Z,12.30
2019-03-03T22:35:20.911Z,12.30
2019-03-03T22:37:49.603Z,12.30
2019-03-03T22:40:20.516Z,12.30
2019-03-03T22:42:49.719Z,12.30
2019-03-03T22:45:18.573Z,12.20
2019-03-03T22:47:47.087Z,12.30
2019-03-03T22:50:19.783Z,12.30
2019-03-03T22:52:48.202Z,12.30
2019-03-03T22:55:18.456Z,12.30
2019-03-03T22:57:47.369Z,12.30
2019-03-03T23:00:50.737Z,12.30
2019-03-03T23:03:25.693Z,12.30
2019-03-03T23:05:59.909Z,12.30
2019-03-03T23:08:31.663Z,12.40
2019-03-03T23:11:03.182Z,12.40
2019-03-03T23:13:34.666Z,12.40
2019-03-03T23:16:24.038Z,12.40
2019-03-03T23:18:58.662Z,12.50
2019-03-03T23:21:51.112Z,12.40
2019-03-03T23:24:51.290Z,12.40
2019-03-03T23:27:19.932Z,12.50
2019-03-03T23:29:48.352Z,12.40
2019-03-03T23:32:17.052Z,12.40
2019-03-03T23:34:45.457Z,12.50
2019-03-03T23:37:13.884Z,12.50
2019-03-03T23:39:42.607Z,12.50
2019-03-03T23:42:11.297Z,12.60
2019-03-03T23:44:39.699Z,12.60
2019-03-03T23:47:08.156Z,12.60
2019-03-03T23:49:36.836Z,12.70
2019-03-03T23:52:05.245Z,12.70
2019-03-03T23:54:33.721Z,12.70
2019-03-03T23:57:02.151Z,12.60
2019-03-03T23:59:30.803Z,12.70
